首页
METAR-TAF:

METAR-TAF

机场 :

克拉約瓦, 罗马尼亚

纬度: 44-14N, 经度: 023-52E, 海拔: 192米

当前天气观测

该预报发布于19分钟前的02:00 UTC
风速2节,风向多变
温度 -6°C
湿度 86%
气压 1041 hPa
能見度: 5000
轻雾

METAR: LRCV 210200Z VRB02KT 5000 BR NSC M06/M08 Q1041

时间: 04:19 (02:19 UTC)

预报

该预报发布于3小时和19分钟前的23:00 UTC
预报有效从21日的 00点(UTC)到 21日的 09点(UTC)
风速6节,风向西
能见度10公里或以上
1500米以下无云,无积雨云
短暂存在
从 21日的 00点(UTC)到 21日的 06点(UTC)
能見度: 3000
多云层高于1000英尺
轻雾

TAF: LRCV 202300Z 2100/2109 27006KT CAVOK TEMPO 2100/2106 3000 BR BKN010

超过4000个机场的气象观测和天气预报(METAR&TAF报告)。

可查询的气象台以黄色和红色小点在地图上表示。

将鼠标移到小点上方,可查看气象台名称。

然后点击查看天气观测和预报。

如需切换地图:点击带黑十字的绿色按钮放大地图;点击带横线的绿色按钮缩小地图;或者点击绿色箭头查看邻近地区的地图。


METAR-TAF: